sensor_id;sensor_type;location;lat;lon;timestamp;pressure;altitude;pressure_sealevel;temperature;humidity
58239;BME280;44037;55.638;37.356;2023-04-07T00:00:44;99975.78;;;4.44;55.89
58239;BME280;44037;55.638;37.356;2023-04-07T00:03:12;99978.22;;;4.41;56.06
58239;BME280;44037;55.638;37.356;2023-04-07T00:05:39;99975.56;;;4.38;55.52
58239;BME280;44037;55.638;37.356;2023-04-07T00:08:06;99980.69;;;4.38;55.87
58239;BME280;44037;55.638;37.356;2023-04-07T00:10:33;99976.38;;;4.37;55.31
58239;BME280;44037;55.638;37.356;2023-04-07T00:13:01;99979.00;;;4.39;55.63
58239;BME280;44037;55.638;37.356;2023-04-07T00:15:28;99975.59;;;4.40;55.41
58239;BME280;44037;55.638;37.356;2023-04-07T00:17:55;99971.28;;;4.39;55.93
58239;BME280;44037;55.638;37.356;2023-04-07T00:20:24;99984.28;;;4.43;55.54
58239;BME280;44037;55.638;37.356;2023-04-07T00:22:51;99975.75;;;4.43;55.77
58239;BME280;44037;55.638;37.356;2023-04-07T00:25:18;99984.94;;;4.38;55.65
58239;BME280;44037;55.638;37.356;2023-04-07T00:27:45;99984.84;;;4.35;55.19
58239;BME280;44037;55.638;37.356;2023-04-07T00:30:12;99987.28;;;4.32;55.37
58239;BME280;44037;55.638;37.356;2023-04-07T00:32:40;99980.31;;;4.29;55.09
58239;BME280;44037;55.638;37.356;2023-04-07T00:35:07;99977.75;;;4.29;55.57
58239;BME280;44037;55.638;37.356;2023-04-07T00:37:36;99976.94;;;4.30;54.99
58239;BME280;44037;55.638;37.356;2023-04-07T00:40:04;99978.63;;;4.29;54.88
58239;BME280;44037;55.638;37.356;2023-04-07T00:42:32;99976.06;;;4.29;55.84
58239;BME280;44037;55.638;37.356;2023-04-07T00:45:00;99974.44;;;4.32;54.61
58239;BME280;44037;55.638;37.356;2023-04-07T00:47:27;99970.00;;;4.27;54.85
58239;BME280;44037;55.638;37.356;2023-04-07T00:49:54;99974.19;;;4.25;55.48
58239;BME280;44037;55.638;37.356;2023-04-07T00:52:21;99966.44;;;4.24;55.71
58239;BME280;44037;55.638;37.356;2023-04-07T00:54:54;99974.25;;;4.27;54.99
58239;BME280;44037;55.638;37.356;2023-04-07T00:57:22;99975.88;;;4.25;55.02
58239;BME280;44037;55.638;37.356;2023-04-07T00:59:50;99974.91;;;4.21;55.39
58239;BME280;44037;55.638;37.356;2023-04-07T01:02:22;99972.34;;;4.21;54.97
58239;BME280;44037;55.638;37.356;2023-04-07T01:04:57;99967.06;;;4.18;55.65
58239;BME280;44037;55.638;37.356;2023-04-07T01:07:29;99970.50;;;4.19;55.17
58239;BME280;44037;55.638;37.356;2023-04-07T01:10:02;99976.34;;;4.14;55.22
58239;BME280;44037;55.638;37.356;2023-04-07T01:12:35;99971.00;;;4.10;55.15
58239;BME280;44037;55.638;37.356;2023-04-07T01:15:08;99975.13;;;4.06;55.65
58239;BME280;44037;55.638;37.356;2023-04-07T01:17:37;99968.25;;;4.05;55.56
58239;BME280;44037;55.638;37.356;2023-04-07T01:20:06;99982.72;;;4.03;55.43
58239;BME280;44037;55.638;37.356;2023-04-07T01:22:40;99974.19;;;4.04;55.66
58239;BME280;44037;55.638;37.356;2023-04-07T01:25:25;99979.25;;;4.03;54.98
58239;BME280;44037;55.638;37.356;2023-04-07T01:28:01;99979.06;;;3.98;55.20
58239;BME280;44037;55.638;37.356;2023-04-07T01:30:39;99977.31;;;3.97;55.47
58239;BME280;44037;55.638;37.356;2023-04-07T01:33:08;99979.06;;;3.98;55.44
58239;BME280;44037;55.638;37.356;2023-04-07T01:35:38;99972.06;;;3.94;55.26
58239;BME280;44037;55.638;37.356;2023-04-07T01:38:05;99967.00;;;3.95;55.76
58239;BME280;44037;55.638;37.356;2023-04-07T01:40:34;99984.06;;;3.95;55.09
58239;BME280;44037;55.638;37.356;2023-04-07T01:43:01;99971.19;;;3.93;55.00
58239;BME280;44037;55.638;37.356;2023-04-07T01:45:29;99974.44;;;3.89;55.33
58239;BME280;44037;55.638;37.356;2023-04-07T01:47:59;99966.63;;;3.86;56.24
58239;BME280;44037;55.638;37.356;2023-04-07T01:50:27;99972.56;;;3.85;55.74
58239;BME280;44037;55.638;37.356;2023-04-07T01:52:56;99969.88;;;3.82;55.88
58239;BME280;44037;55.638;37.356;2023-04-07T01:55:24;99974.13;;;3.81;55.83
58239;BME280;44037;55.638;37.356;2023-04-07T01:57:52;99973.94;;;3.77;55.30
58239;BME280;44037;55.638;37.356;2023-04-07T02:00:19;99972.03;;;3.73;56.51
58239;BME280;44037;55.638;37.356;2023-04-07T02:02:48;99970.31;;;3.72;56.42
58239;BME280;44037;55.638;37.356;2023-04-07T02:05:20;99970.22;;;3.70;56.13
58239;BME280;44037;55.638;37.356;2023-04-07T02:07:51;99978.00;;;3.72;56.90
58239;BME280;44037;55.638;37.356;2023-04-07T02:10:23;99980.56;;;3.72;56.20
58239;BME280;44037;55.638;37.356;2023-04-07T02:12:51;99983.94;;;3.71;56.96
58239;BME280;44037;55.638;37.356;2023-04-07T02:15:21;99978.06;;;3.73;56.80
58239;BME280;44037;55.638;37.356;2023-04-07T02:17:51;99985.69;;;3.72;56.35
58239;BME280;44037;55.638;37.356;2023-04-07T02:20:21;99979.44;;;3.65;56.41
58239;BME280;44037;55.638;37.356;2023-04-07T02:22:49;99979.28;;;3.62;56.75
58239;BME280;44037;55.638;37.356;2023-04-07T02:25:20;99981.84;;;3.62;56.41
58239;BME280;44037;55.638;37.356;2023-04-07T02:27:48;99986.78;;;3.57;56.25
58239;BME280;44037;55.638;37.356;2023-04-07T02:30:15;99983.28;;;3.55;56.63
58239;BME280;44037;55.638;37.356;2023-04-07T02:32:42;99987.47;;;3.53;56.39
58239;BME280;44037;55.638;37.356;2023-04-07T02:35:09;99987.41;;;3.51;56.36
58239;BME280;44037;55.638;37.356;2023-04-07T02:37:38;99991.63;;;3.51;56.59
58239;BME280;44037;55.638;37.356;2023-04-07T02:40:06;99984.84;;;3.51;57.16
58239;BME280;44037;55.638;37.356;2023-04-07T02:42:34;99989.03;;;3.49;56.91
58239;BME280;44037;55.638;37.356;2023-04-07T02:45:02;99988.88;;;3.46;56.59
58239;BME280;44037;55.638;37.356;2023-04-07T02:47:29;99988.75;;;3.43;56.87
58239;BME280;44037;55.638;37.356;2023-04-07T02:49:56;99990.63;;;3.47;57.27
58239;BME280;44037;55.638;37.356;2023-04-07T02:52:23;99995.94;;;3.52;56.93
58239;BME280;44037;55.638;37.356;2023-04-07T02:54:52;99994.19;;;3.51;56.93
58239;BME280;44037;55.638;37.356;2023-04-07T02:57:19;100005.19;;;3.48;56.63
58239;BME280;44037;55.638;37.356;2023-04-07T02:59:46;100000.06;;;3.48;56.93
58239;BME280;44037;55.638;37.356;2023-04-07T03:02:13;100004.25;;;3.46;56.74
58239;BME280;44037;55.638;37.356;2023-04-07T03:04:40;100005.06;;;3.45;57.31
58239;BME280;44037;55.638;37.356;2023-04-07T03:07:07;99994.88;;;3.47;57.39
58239;BME280;44037;55.638;37.356;2023-04-07T03:09:34;100007.91;;;3.51;57.06
58239;BME280;44037;55.638;37.356;2023-04-07T03:12:03;100002.63;;;3.48;56.91
58239;BME280;44037;55.638;37.356;2023-04-07T03:14:30;100005.06;;;3.45;57.06
58239;BME280;44037;55.638;37.356;2023-04-07T03:16:57;100008.50;;;3.46;57.15
58239;BME280;44037;55.638;37.356;2023-04-07T03:19:25;100006.06;;;3.49;56.88
58239;BME280;44037;55.638;37.356;2023-04-07T03:21:52;100011.38;;;3.53;57.04
58239;BME280;44037;55.638;37.356;2023-04-07T03:24:19;100005.53;;;3.56;57.15
58239;BME280;44037;55.638;37.356;2023-04-07T03:26:46;100006.47;;;3.58;57.19
58239;BME280;44037;55.638;37.356;2023-04-07T03:29:15;100003.97;;;3.60;57.11
58239;BME280;44037;55.638;37.356;2023-04-07T03:31:42;100006.59;;;3.61;57.06
58239;BME280;44037;55.638;37.356;2023-04-07T03:34:09;100013.56;;;3.64;56.48
58239;BME280;44037;55.638;37.356;2023-04-07T03:36:36;100009.09;;;3.60;56.75
58239;BME280;44037;55.638;37.356;2023-04-07T03:39:03;100014.22;;;3.60;56.63
58239;BME280;44037;55.638;37.356;2023-04-07T03:41:30;100021.28;;;3.65;56.87
58239;BME280;44037;55.638;37.356;2023-04-07T03:43:57;100022.28;;;3.69;56.90
58239;BME280;44037;55.638;37.356;2023-04-07T03:46:26;100017.19;;;3.69;57.06
58239;BME280;44037;55.638;37.356;2023-04-07T03:48:53;100022.38;;;3.71;56.76
58239;BME280;44037;55.638;37.356;2023-04-07T03:51:20;100028.44;;;3.73;56.92
58239;BME280;44037;55.638;37.356;2023-04-07T03:53:48;100012.31;;;3.75;56.93
58239;BME280;44037;55.638;37.356;2023-04-07T03:56:15;100021.06;;;3.80;57.21
58239;BME280;44037;55.638;37.356;2023-04-07T03:58:42;100020.41;;;3.84;56.57
58239;BME280;44037;55.638;37.356;2023-04-07T04:01:11;100027.34;;;3.87;56.72
58239;BME280;44037;55.638;37.356;2023-04-07T04:03:39;100036.09;;;3.92;56.63
58239;BME280;44037;55.638;37.356;2023-04-07T04:06:06;100024.09;;;3.91;55.84
58239;BME280;44037;55.638;37.356;2023-04-07T04:08:33;100035.16;;;3.90;55.74
58239;BME280;44037;55.638;37.356;2023-04-07T04:11:01;100032.53;;;3.89;55.92
58239;BME280;44037;55.638;37.356;2023-04-07T04:13:28;100032.66;;;3.92;55.60
58239;BME280;44037;55.638;37.356;2023-04-07T04:15:55;100027.75;;;3.96;56.37
58239;BME280;44037;55.638;37.356;2023-04-07T04:18:22;100039.06;;;4.02;55.86
58239;BME280;44037;55.638;37.356;2023-04-07T04:20:51;100033.06;;;4.01;56.13
58239;BME280;44037;55.638;37.356;2023-04-07T04:23:18;100034.00;;;4.03;56.10
58239;BME280;44037;55.638;37.356;2023-04-07T04:25:45;100042.00;;;4.11;56.14
58239;BME280;44037;55.638;37.356;2023-04-07T04:28:12;100037.94;;;4.16;55.33
58239;BME280;44037;55.638;37.356;2023-04-07T04:30:40;100039.03;;;4.21;55.86
58239;BME280;44037;55.638;37.356;2023-04-07T04:33:07;100038.44;;;4.28;56.04
58239;BME280;44037;55.638;37.356;2023-04-07T04:35:34;100043.00;;;4.36;55.23
58239;BME280;44037;55.638;37.356;2023-04-07T04:38:03;100032.69;;;4.34;55.10
58239;BME280;44037;55.638;37.356;2023-04-07T04:40:30;100038.56;;;4.32;54.77
58239;BME280;44037;55.638;37.356;2023-04-07T04:42:57;100036.00;;;4.32;54.96
58239;BME280;44037;55.638;37.356;2023-04-07T04:45:24;100034.50;;;4.37;55.63
58239;BME280;44037;55.638;37.356;2023-04-07T04:47:53;100047.81;;;4.49;55.30
58239;BME280;44037;55.638;37.356;2023-04-07T04:50:20;100042.31;;;4.61;55.80
58239;BME280;44037;55.638;37.356;2023-04-07T04:52:47;100040.03;;;4.69;55.02
58239;BME280;44037;55.638;37.356;2023-04-07T04:55:22;100047.28;;;4.79;54.67
58239;BME280;44037;55.638;37.356;2023-04-07T04:57:49;100051.09;;;4.89;54.59
58239;BME280;44037;55.638;37.356;2023-04-07T05:00:17;100050.56;;;4.98;54.27
58239;BME280;44037;55.638;37.356;2023-04-07T05:02:47;100054.19;;;5.03;54.26
58239;BME280;44037;55.638;37.356;2023-04-07T05:05:14;100054.31;;;5.06;53.84
58239;BME280;44037;55.638;37.356;2023-04-07T05:07:41;100059.78;;;5.15;54.09
58239;BME280;44037;55.638;37.356;2023-04-07T05:10:09;100052.50;;;5.26;54.74
58239;BME280;44037;55.638;37.356;2023-04-07T05:12:38;100053.75;;;5.37;54.39
58239;BME280;44037;55.638;37.356;2023-04-07T05:15:06;100056.91;;;5.53;54.27
58239;BME280;44037;55.638;37.356;2023-04-07T05:25:15;100059.78;;;6.11;53.76
58239;BME280;44037;55.638;37.356;2023-04-07T05:27:44;100059.78;;;6.11;52.67
58239;BME280;44037;55.638;37.356;2023-04-07T05:30:12;100067.31;;;6.05;51.55
58239;BME280;44037;55.638;37.356;2023-04-07T05:32:39;100063.69;;;5.99;51.52
58239;BME280;44037;55.638;37.356;2023-04-07T05:35:06;100065.78;;;5.87;51.66
58239;BME280;44037;55.638;37.356;2023-04-07T05:37:34;100060.53;;;5.84;52.36
58239;BME280;44037;55.638;37.356;2023-04-07T05:40:01;100065.91;;;5.90;52.10
58239;BME280;44037;55.638;37.356;2023-04-07T05:42:29;100057.91;;;6.07;53.36
58239;BME280;44037;55.638;37.356;2023-04-07T05:44:57;100066.25;;;6.25;52.78
58239;BME280;44037;55.638;37.356;2023-04-07T05:47:24;100062.34;;;6.37;52.49
58239;BME280;44037;55.638;37.356;2023-04-07T05:49:52;100067.78;;;6.46;51.72
58239;BME280;44037;55.638;37.356;2023-04-07T05:52:19;100069.50;;;6.45;51.50
58239;BME280;44037;55.638;37.356;2023-04-07T05:54:46;100067.59;;;6.40;51.70
58239;BME280;44037;55.638;37.356;2023-04-07T05:57:13;100062.44;;;6.40;51.09
58239;BME280;44037;55.638;37.356;2023-04-07T05:59:41;100063.59;;;6.50;52.18
58239;BME280;44037;55.638;37.356;2023-04-07T06:02:09;100070.16;;;6.66;51.74
58239;BME280;44037;55.638;37.356;2023-04-07T06:04:36;100069.41;;;6.70;51.36
58239;BME280;44037;55.638;37.356;2023-04-07T06:07:04;100063.50;;;6.72;49.72
58239;BME280;44037;55.638;37.356;2023-04-07T06:09:31;100072.78;;;6.69;50.20
58239;BME280;44037;55.638;37.356;2023-04-07T06:11:58;100066.69;;;6.65;50.25
58239;BME280;44037;55.638;37.356;2023-04-07T06:14:26;100072.63;;;6.63;50.59
58239;BME280;44037;55.638;37.356;2023-04-07T06:16:53;100073.72;;;6.71;50.81
58239;BME280;44037;55.638;37.356;2023-04-07T06:19:22;100080.03;;;6.81;49.91
58239;BME280;44037;55.638;37.356;2023-04-07T06:21:49;100078.16;;;6.75;49.43
58239;BME280;44037;55.638;37.356;2023-04-07T06:24:16;100079.44;;;6.62;49.40
58239;BME280;44037;55.638;37.356;2023-04-07T06:26:43;100077.66;;;6.59;50.50
58239;BME280;44037;55.638;37.356;2023-04-07T06:29:11;100079.81;;;6.73;50.50
58239;BME280;44037;55.638;37.356;2023-04-07T06:31:38;100080.22;;;6.87;50.71
58239;BME280;44037;55.638;37.356;2023-04-07T06:34:05;100080.44;;;6.93;50.38
58239;BME280;44037;55.638;37.356;2023-04-07T06:36:33;100091.66;;;6.95;50.13
58239;BME280;44037;55.638;37.356;2023-04-07T06:39:00;100079.72;;;6.97;50.36
58239;BME280;44037;55.638;37.356;2023-04-07T06:41:28;100080.66;;;7.01;50.00
58239;BME280;44037;55.638;37.356;2023-04-07T06:43:56;100086.97;;;7.11;50.63
58239;BME280;44037;55.638;37.356;2023-04-07T06:46:23;100088.88;;;7.16;49.25
58239;BME280;44037;55.638;37.356;2023-04-07T06:48:51;100081.03;;;7.13;49.20
58239;BME280;44037;55.638;37.356;2023-04-07T06:51:18;100091.16;;;7.07;48.52
58239;BME280;44037;55.638;37.356;2023-04-07T06:53:46;100085.78;;;6.99;48.42
58239;BME280;44037;55.638;37.356;2023-04-07T06:56:14;100102.06;;;6.98;49.93
58239;BME280;44037;55.638;37.356;2023-04-07T06:58:41;100089.22;;;7.00;49.57
58239;BME280;44037;55.638;37.356;2023-04-07T07:01:08;100088.44;;;7.02;50.04
58239;BME280;44037;55.638;37.356;2023-04-07T07:03:35;100093.97;;;7.15;50.27
58239;BME280;44037;55.638;37.356;2023-04-07T07:06:02;100096.03;;;7.27;49.97
58239;BME280;44037;55.638;37.356;2023-04-07T07:08:30;100088.53;;;7.34;49.52
58239;BME280;44037;55.638;37.356;2023-04-07T07:10:58;100092.16;;;7.41;49.31
58239;BME280;44037;55.638;37.356;2023-04-07T07:13:26;100087.28;;;7.50;49.98
58239;BME280;44037;55.638;37.356;2023-04-07T07:15:54;100091.22;;;7.68;50.07
58239;BME280;44037;55.638;37.356;2023-04-07T07:18:21;100085.81;;;7.91;49.35
58239;BME280;44037;55.638;37.356;2023-04-07T07:20:48;100086.25;;;8.08;48.88
58239;BME280;44037;55.638;37.356;2023-04-07T07:23:15;100083.81;;;8.14;46.91
58239;BME280;44037;55.638;37.356;2023-04-07T07:25:42;100078.50;;;8.06;47.65
58239;BME280;44037;55.638;37.356;2023-04-07T07:28:10;100079.38;;;8.08;47.63
58239;BME280;44037;55.638;37.356;2023-04-07T07:30:38;100083.06;;;8.18;48.03
58239;BME280;44037;55.638;37.356;2023-04-07T07:33:06;100097.22;;;8.33;47.89
58239;BME280;44037;55.638;37.356;2023-04-07T07:35:34;100094.13;;;8.46;47.30
58239;BME280;44037;55.638;37.356;2023-04-07T07:38:02;100083.91;;;8.49;47.10
58239;BME280;44037;55.638;37.356;2023-04-07T07:40:29;100084.75;;;8.50;46.67
58239;BME280;44037;55.638;37.356;2023-04-07T07:42:56;100082.28;;;8.54;47.09
58239;BME280;44037;55.638;37.356;2023-04-07T07:45:25;100074.75;;;8.64;46.78
58239;BME280;44037;55.638;37.356;2023-04-07T07:47:52;100086.25;;;8.75;46.18
58239;BME280;44037;55.638;37.356;2023-04-07T07:50:19;100084.69;;;8.82;46.43
58239;BME280;44037;55.638;37.356;2023-04-07T07:52:47;100079.63;;;8.88;46.28
58239;BME280;44037;55.638;37.356;2023-04-07T07:55:14;100086.81;;;9.00;45.15
58239;BME280;44037;55.638;37.356;2023-04-07T07:57:41;100084.38;;;9.07;45.67
58239;BME280;44037;55.638;37.356;2023-04-07T08:00:09;100082.03;;;9.18;45.55
58239;BME280;44037;55.638;37.356;2023-04-07T08:02:38;100083.94;;;9.27;44.42
58239;BME280;44037;55.638;37.356;2023-04-07T08:05:05;100086.59;;;9.30;43.96
58239;BME280;44037;55.638;37.356;2023-04-07T08:07:32;100077.19;;;9.32;44.22
58239;BME280;44037;55.638;37.356;2023-04-07T08:10:00;100087.53;;;9.32;44.16
58239;BME280;44037;55.638;37.356;2023-04-07T08:12:28;100066.88;;;9.35;43.47
58239;BME280;44037;55.638;37.356;2023-04-07T08:14:55;100067.84;;;9.41;43.83
58239;BME280;44037;55.638;37.356;2023-04-07T08:17:23;100074.03;;;9.47;43.03
58239;BME280;44037;55.638;37.356;2023-04-07T08:19:51;100085.31;;;9.52;42.20
58239;BME280;44037;55.638;37.356;2023-04-07T08:22:18;100080.97;;;9.50;42.28
58239;BME280;44037;55.638;37.356;2023-04-07T08:24:46;100072.34;;;9.49;42.80
58239;BME280;44037;55.638;37.356;2023-04-07T08:27:13;100069.84;;;9.54;43.04
58239;BME280;44037;55.638;37.356;2023-04-07T08:29:40;100053.66;;;9.63;42.10
58239;BME280;44037;55.638;37.356;2023-04-07T08:32:07;100075.34;;;9.70;41.90
58239;BME280;44037;55.638;37.356;2023-04-07T08:34:34;100059.94;;;9.77;42.96
58239;BME280;44037;55.638;37.356;2023-04-07T08:37:03;100058.41;;;9.87;42.34
58239;BME280;44037;55.638;37.356;2023-04-07T08:39:30;100073.25;;;9.96;41.80
58239;BME280;44037;55.638;37.356;2023-04-07T08:41:57;100085.41;;;10.02;41.71
58239;BME280;44037;55.638;37.356;2023-04-07T08:44:24;100059.50;;;10.00;41.56
58239;BME280;44037;55.638;37.356;2023-04-07T08:46:56;100075.69;;;9.88;39.41
58239;BME280;44037;55.638;37.356;2023-04-07T08:49:27;100064.28;;;9.78;40.89
58239;BME280;44037;55.638;37.356;2023-04-07T08:51:55;100081.34;;;9.68;40.68
58239;BME280;44037;55.638;37.356;2023-04-07T08:54:25;100080.34;;;9.62;41.04
58239;BME280;44037;55.638;37.356;2023-04-07T08:56:53;100091.38;;;9.53;40.69
58239;BME280;44037;55.638;37.356;2023-04-07T08:59:20;100074.22;;;9.58;41.21
58239;BME280;44037;55.638;37.356;2023-04-07T09:01:51;100076.94;;;9.64;41.58
58239;BME280;44037;55.638;37.356;2023-04-07T09:04:19;100066.84;;;9.77;41.83
58239;BME280;44037;55.638;37.356;2023-04-07T09:06:48;100068.03;;;9.94;41.22
58239;BME280;44037;55.638;37.356;2023-04-07T09:09:15;100062.13;;;10.02;40.96
58239;BME280;44037;55.638;37.356;2023-04-07T09:11:44;100057.06;;;10.08;41.52
58239;BME280;44037;55.638;37.356;2023-04-07T09:14:11;100065.91;;;10.19;41.47
58239;BME280;44037;55.638;37.356;2023-04-07T09:16:40;100052.25;;;10.29;40.97
58239;BME280;44037;55.638;37.356;2023-04-07T09:19:07;100049.00;;;10.41;41.06
58239;BME280;44037;55.638;37.356;2023-04-07T09:21:47;100054.38;;;10.52;40.53
58239;BME280;44037;55.638;37.356;2023-04-07T09:24:22;100052.84;;;10.65;39.89
58239;BME280;44037;55.638;37.356;2023-04-07T09:27:07;100039.16;;;10.74;39.79
58239;BME280;44037;55.638;37.356;2023-04-07T09:29:36;100047.09;;;10.86;40.15
58239;BME280;44037;55.638;37.356;2023-04-07T09:32:03;100054.06;;;10.89;38.49
58239;BME280;44037;55.638;37.356;2023-04-07T09:34:31;100060.84;;;10.81;38.81
58239;BME280;44037;55.638;37.356;2023-04-07T09:36:59;100052.16;;;10.79;39.75
58239;BME280;44037;55.638;37.356;2023-04-07T09:39:26;100049.63;;;10.80;39.49
58239;BME280;44037;55.638;37.356;2023-04-07T09:41:55;100041.13;;;10.90;38.82
58239;BME280;44037;55.638;37.356;2023-04-07T09:44:24;100052.44;;;10.96;37.99
58239;BME280;44037;55.638;37.356;2023-04-07T09:46:52;100048.16;;;10.99;37.92
58239;BME280;44037;55.638;37.356;2023-04-07T09:49:20;100042.09;;;10.99;37.62
58239;BME280;44037;55.638;37.356;2023-04-07T09:51:55;100043.16;;;11.12;38.94
58239;BME280;44037;55.638;37.356;2023-04-07T09:54:33;100037.31;;;11.30;37.86
58239;BME280;44037;55.638;37.356;2023-04-07T09:57:03;100031.50;;;11.49;38.10
58239;BME280;44037;55.638;37.356;2023-04-07T09:59:31;100038.59;;;11.66;36.84
58239;BME280;44037;55.638;37.356;2023-04-07T10:01:59;100037.84;;;11.75;36.23
58239;BME280;44037;55.638;37.356;2023-04-07T10:04:27;100031.84;;;11.80;37.06
58239;BME280;44037;55.638;37.356;2023-04-07T10:06:55;100036.31;;;11.94;37.41
58239;BME280;44037;55.638;37.356;2023-04-07T10:09:23;100035.53;;;12.01;36.64
58239;BME280;44037;55.638;37.356;2023-04-07T10:11:52;100033.03;;;12.13;36.79
58239;BME280;44037;55.638;37.356;2023-04-07T10:14:22;100044.28;;;12.12;34.88
58239;BME280;44037;55.638;37.356;2023-04-07T10:16:51;100044.94;;;11.94;33.89
58239;BME280;44037;55.638;37.356;2023-04-07T10:19:19;100037.88;;;11.81;35.57
58239;BME280;44037;55.638;37.356;2023-04-07T10:21:49;100038.81;;;11.88;36.12
58239;BME280;44037;55.638;37.356;2023-04-07T10:24:28;100030.34;;;12.01;34.96
58239;BME280;44037;55.638;37.356;2023-04-07T10:26:59;100042.53;;;12.08;35.18
58239;BME280;44037;55.638;37.356;2023-04-07T10:29:32;100052.16;;;12.20;34.57
58239;BME280;44037;55.638;37.356;2023-04-07T10:32:00;100031.47;;;12.31;35.61
58239;BME280;44037;55.638;37.356;2023-04-07T10:34:54;100038.50;;;12.48;35.62
58239;BME280;44037;55.638;37.356;2023-04-07T10:37:23;100050.72;;;12.53;32.37
58239;BME280;44037;55.638;37.356;2023-04-07T10:39:52;100044.59;;;12.50;33.39
58239;BME280;44037;55.638;37.356;2023-04-07T10:42:45;100044.66;;;12.57;34.58
58239;BME280;44037;55.638;37.356;2023-04-07T10:45:14;100047.22;;;12.54;32.72
58239;BME280;44037;55.638;37.356;2023-04-07T10:48:09;100048.91;;;12.48;33.80
58239;BME280;44037;55.638;37.356;2023-04-07T10:50:36;100044.59;;;12.47;33.76
58239;BME280;44037;55.638;37.356;2023-04-07T10:53:07;100049.00;;;12.57;32.82
58239;BME280;44037;55.638;37.356;2023-04-07T10:55:36;100042.13;;;12.67;33.78
58239;BME280;44037;55.638;37.356;2023-04-07T10:58:22;100044.78;;;12.78;32.90
58239;BME280;44037;55.638;37.356;2023-04-07T11:01:19;100053.47;;;12.80;32.14
58239;BME280;44037;55.638;37.356;2023-04-07T11:03:57;100051.81;;;12.91;33.14
58239;BME280;44037;55.638;37.356;2023-04-07T11:06:25;100044.97;;;13.07;33.18
58239;BME280;44037;55.638;37.356;2023-04-07T11:08:53;100036.38;;;13.19;32.56
58239;BME280;44037;55.638;37.356;2023-04-07T11:11:35;100044.16;;;13.20;31.52
58239;BME280;44037;55.638;37.356;2023-04-07T11:14:04;100059.78;;;13.20;31.41
58239;BME280;44037;55.638;37.356;2023-04-07T11:16:38;100044.13;;;13.13;31.22
58239;BME280;44037;55.638;37.356;2023-04-07T11:19:10;100039.75;;;13.07;31.21
58239;BME280;44037;55.638;37.356;2023-04-07T11:21:38;100047.59;;;13.12;30.47
58239;BME280;44037;55.638;37.356;2023-04-07T11:24:05;100038.97;;;13.20;30.97
58239;BME280;44037;55.638;37.356;2023-04-07T11:26:39;100051.13;;;13.21;30.97
58239;BME280;44037;55.638;37.356;2023-04-07T11:29:07;100042.38;;;13.07;29.98
58239;BME280;44037;55.638;37.356;2023-04-07T11:31:37;100040.53;;;12.89;29.68
58239;BME280;44037;55.638;37.356;2023-04-07T11:34:04;100043.09;;;12.80;31.98
58239;BME280;44037;55.638;37.356;2023-04-07T11:36:33;100035.28;;;12.80;30.69
58239;BME280;44037;55.638;37.356;2023-04-07T11:39:01;100029.22;;;12.81;31.71
58239;BME280;44037;55.638;37.356;2023-04-07T11:41:29;100029.22;;;12.81;31.37
58239;BME280;44037;55.638;37.356;2023-04-07T11:44:07;100036.97;;;12.74;31.19
58239;BME280;44037;55.638;37.356;2023-04-07T11:46:36;100037.84;;;12.77;31.79
58239;BME280;44037;55.638;37.356;2023-04-07T11:49:17;100033.53;;;12.80;30.25
58239;BME280;44037;55.638;37.356;2023-04-07T11:51:45;100043.03;;;12.73;31.23
58239;BME280;44037;55.638;37.356;2023-04-07T11:54:12;100031.72;;;12.64;30.52
58239;BME280;44037;55.638;37.356;2023-04-07T11:56:42;100033.31;;;12.48;29.72
58239;BME280;44037;55.638;37.356;2023-04-07T11:59:19;100033.22;;;12.32;29.19
58239;BME280;44037;55.638;37.356;2023-04-07T12:01:48;100038.16;;;12.06;30.25
58239;BME280;44037;55.638;37.356;2023-04-07T12:04:16;100035.50;;;11.98;30.52
58239;BME280;44037;55.638;37.356;2023-04-07T12:06:44;100032.06;;;12.04;31.44
58239;BME280;44037;55.638;37.356;2023-04-07T12:09:27;100030.47;;;12.18;32.41
58239;BME280;44037;55.638;37.356;2023-04-07T12:11:55;100027.19;;;12.39;32.20
58239;BME280;44037;55.638;37.356;2023-04-07T12:14:23;100036.84;;;12.57;29.88
58239;BME280;44037;55.638;37.356;2023-04-07T12:16:51;100051.63;;;12.63;30.48
58239;BME280;44037;55.638;37.356;2023-04-07T12:19:21;100039.41;;;12.50;29.31
58239;BME280;44037;55.638;37.356;2023-04-07T12:21:48;100034.97;;;12.35;30.14
58239;BME280;44037;55.638;37.356;2023-04-07T12:24:15;100041.00;;;12.32;29.90
58239;BME280;44037;55.638;37.356;2023-04-07T12:26:43;100045.31;;;12.30;30.51
58239;BME280;44037;55.638;37.356;2023-04-07T12:29:10;100042.69;;;12.27;30.44
58239;BME280;44037;55.638;37.356;2023-04-07T12:31:37;100028.84;;;12.29;29.92
58239;BME280;44037;55.638;37.356;2023-04-07T12:34:05;100028.00;;;12.31;30.69
58239;BME280;44037;55.638;37.356;2023-04-07T12:36:32;100039.34;;;12.39;30.61
58239;BME280;44037;55.638;37.356;2023-04-07T12:39:00;100034.19;;;12.47;30.59
58239;BME280;44037;55.638;37.356;2023-04-07T12:41:27;100048.13;;;12.55;30.15
58239;BME280;44037;55.638;37.356;2023-04-07T12:43:54;100042.09;;;12.59;30.28
58239;BME280;44037;55.638;37.356;2023-04-07T12:46:21;100036.88;;;12.60;30.36
58239;BME280;44037;55.638;37.356;2023-04-07T12:48:51;100027.34;;;12.59;29.70
58239;BME280;44037;55.638;37.356;2023-04-07T12:51:20;100025.59;;;12.57;28.98
58239;BME280;44037;55.638;37.356;2023-04-07T12:53:47;100025.59;;;12.57;30.44
58239;BME280;44037;55.638;37.356;2023-04-07T12:56:14;100023.91;;;12.60;29.58
58239;BME280;44037;55.638;37.356;2023-04-07T12:58:41;100032.59;;;12.67;29.50
58239;BME280;44037;55.638;37.356;2023-04-07T13:01:08;100025.69;;;12.69;29.70
58239;BME280;44037;55.638;37.356;2023-04-07T13:03:35;100018.78;;;12.71;29.74
58239;BME280;44037;55.638;37.356;2023-04-07T13:06:03;100025.72;;;12.75;29.52